createdAt,value
2022-12-22T00:01:32.309Z,6.49
2022-12-22T00:04:20.684Z,6.46
2022-12-22T00:07:05.781Z,6.35
2022-12-22T00:09:50.837Z,6.36
2022-12-22T00:12:37.117Z,6.48
2022-12-22T00:15:23.452Z,6.51
2022-12-22T00:18:08.652Z,6.56
2022-12-22T00:20:53.989Z,6.69
2022-12-22T00:23:39.460Z,6.57
2022-12-22T00:26:24.825Z,6.52
2022-12-22T00:29:10.472Z,6.53
2022-12-22T00:31:55.742Z,6.67
2022-12-22T00:34:41.750Z,6.66
2022-12-22T00:37:31.817Z,6.61
2022-12-22T00:40:18.272Z,6.61
2022-12-22T00:43:03.449Z,6.66
2022-12-22T00:45:49.424Z,6.74
2022-12-22T00:48:43.985Z,6.69
2022-12-22T00:51:30.299Z,6.62
2022-12-22T00:54:15.690Z,6.66
2022-12-22T00:57:01.084Z,6.80
2022-12-22T00:59:46.803Z,6.72
2022-12-22T01:02:32.455Z,6.84
2022-12-22T01:05:17.788Z,6.76
2022-12-22T01:08:02.990Z,6.67
2022-12-22T01:10:48.499Z,6.74
2022-12-22T01:13:34.337Z,6.73
2022-12-22T01:16:19.713Z,6.64
2022-12-22T01:19:08.150Z,6.76
2022-12-22T01:21:57.175Z,6.85
2022-12-22T01:24:44.039Z,6.88
2022-12-22T01:27:29.683Z,7.02
2022-12-22T01:30:18.046Z,6.86
2022-12-22T01:33:03.364Z,6.94
2022-12-22T01:35:52.455Z,6.92
2022-12-22T01:38:37.888Z,6.84
2022-12-22T01:41:31.670Z,6.97
2022-12-22T01:44:16.974Z,7.04
2022-12-22T01:47:04.351Z,7.06
2022-12-22T01:49:59.888Z,7.20
2022-12-22T01:52:49.297Z,7.25
2022-12-22T01:55:37.231Z,7.19
2022-12-22T01:58:23.545Z,7.19
2022-12-22T02:01:08.818Z,7.23
2022-12-22T02:03:54.213Z,7.01
2022-12-22T02:06:59.568Z,7.16
2022-12-22T02:10:00.316Z,7.27
2022-12-22T02:13:10.097Z,7.43
2022-12-22T02:16:02.532Z,7.30
2022-12-22T02:19:12.007Z,7.29
2022-12-22T02:22:39.812Z,7.21
2022-12-22T02:25:34.820Z,7.19
2022-12-22T02:28:20.658Z,7.21
2022-12-22T02:31:07.080Z,7.35
2022-12-22T02:33:52.627Z,7.45
2022-12-22T02:37:25.629Z,7.39
2022-12-22T02:40:40.913Z,7.50
2022-12-22T02:43:56.655Z,7.56
2022-12-22T02:46:44.875Z,7.46
2022-12-22T02:49:40.601Z,7.45
2022-12-22T02:52:47.774Z,7.50
2022-12-22T02:55:36.716Z,7.53
2022-12-22T02:58:22.267Z,7.44
2022-12-22T03:01:07.474Z,7.63
2022-12-22T03:03:53.237Z,7.45
2022-12-22T03:06:38.545Z,7.56
2022-12-22T03:09:23.970Z,7.62
2022-12-22T03:12:09.386Z,7.60
2022-12-22T03:14:54.712Z,7.50
2022-12-22T03:17:40.068Z,7.60
2022-12-22T03:20:25.797Z,7.49
2022-12-22T03:23:11.339Z,7.50
2022-12-22T03:25:54.503Z,7.57
2022-12-22T03:28:27.667Z,7.59
2022-12-22T03:31:00.718Z,7.66
2022-12-22T03:33:28.230Z,7.61
2022-12-22T03:35:54.990Z,7.60
2022-12-22T03:38:21.609Z,7.73
2022-12-22T03:40:48.385Z,7.79
2022-12-22T03:43:34.637Z,7.95
2022-12-22T03:46:23.348Z,7.90
2022-12-22T03:49:10.103Z,7.92
2022-12-22T03:51:40.897Z,7.92
2022-12-22T03:54:07.938Z,7.79
2022-12-22T03:56:34.560Z,7.93
2022-12-22T03:59:01.455Z,7.96
2022-12-22T04:01:28.425Z,7.97
2022-12-22T04:03:55.255Z,7.98
2022-12-22T04:06:21.965Z,7.81
2022-12-22T04:08:48.656Z,7.93
2022-12-22T04:11:34.959Z,7.93
2022-12-22T04:14:01.886Z,7.98
2022-12-22T04:16:28.698Z,7.95
2022-12-22T04:18:55.508Z,7.97
2022-12-22T04:21:22.197Z,7.83
2022-12-22T04:23:51.441Z,7.88
2022-12-22T04:26:19.521Z,7.93
2022-12-22T04:28:46.301Z,8.03
2022-12-22T04:31:13.322Z,8.10
2022-12-22T04:33:40.037Z,8.07
2022-12-22T04:36:07.291Z,8.08
2022-12-22T04:38:34.430Z,8.01
2022-12-22T04:41:01.141Z,7.96
2022-12-22T04:43:27.868Z,8.04
2022-12-22T04:45:56.067Z,8.09
2022-12-22T04:48:23.668Z,8.09
2022-12-22T04:50:51.828Z,8.05
2022-12-22T04:53:18.463Z,8.10
2022-12-22T04:55:46.929Z,8.05
2022-12-22T04:58:13.612Z,8.08
2022-12-22T05:00:40.388Z,8.05
2022-12-22T05:03:07.512Z,8.18
2022-12-22T05:05:35.372Z,8.08
2022-12-22T05:08:02.522Z,8.14
2022-12-22T05:10:29.769Z,8.10
2022-12-22T05:12:56.499Z,8.13
2022-12-22T05:15:27.023Z,8.28
2022-12-22T05:17:53.773Z,8.34
2022-12-22T05:20:20.836Z,8.14
2022-12-22T05:22:50.647Z,8.14
2022-12-22T05:25:17.377Z,8.11
2022-12-22T05:27:45.003Z,8.32
2022-12-22T05:30:12.124Z,8.23
2022-12-22T05:32:39.440Z,8.12
2022-12-22T05:35:09.282Z,8.14
2022-12-22T05:37:35.933Z,8.25
2022-12-22T05:40:06.415Z,8.28
2022-12-22T05:42:36.043Z,8.07
2022-12-22T05:45:10.061Z,8.20
2022-12-22T05:47:36.839Z,8.21
2022-12-22T05:50:03.994Z,8.26
2022-12-22T05:52:30.647Z,8.26
2022-12-22T05:54:57.308Z,8.21
2022-12-22T05:57:23.948Z,8.36
2022-12-22T05:59:50.679Z,8.40
2022-12-22T06:02:17.583Z,8.41
2022-12-22T06:04:44.460Z,8.25
2022-12-22T06:07:11.155Z,8.36
2022-12-22T06:09:37.865Z,8.28
2022-12-22T06:12:04.829Z,8.44
2022-12-22T06:14:31.763Z,8.22
2022-12-22T06:16:58.399Z,8.31
2022-12-22T06:19:25.171Z,8.35
2022-12-22T06:21:54.846Z,8.30
2022-12-22T06:24:21.461Z,8.48
2022-12-22T06:26:48.332Z,8.51
2022-12-22T06:29:15.028Z,8.54
2022-12-22T06:31:41.749Z,8.40
2022-12-22T06:34:11.888Z,8.48
2022-12-22T06:36:39.075Z,8.59
2022-12-22T06:39:06.685Z,8.65
2022-12-22T06:41:52.045Z,8.50
2022-12-22T06:44:18.691Z,8.59
2022-12-22T06:46:48.376Z,8.65
2022-12-22T06:49:15.064Z,8.56
2022-12-22T06:51:41.843Z,8.49
2022-12-22T06:54:08.503Z,8.59
2022-12-22T06:56:35.165Z,8.55
2022-12-22T06:59:01.898Z,8.49
2022-12-22T07:01:28.698Z,8.60
2022-12-22T07:03:55.693Z,8.70
2022-12-22T07:06:22.587Z,8.69
2022-12-22T07:08:49.458Z,8.64
2022-12-22T07:11:16.537Z,8.66
2022-12-22T07:13:43.247Z,8.87
2022-12-22T07:16:10.728Z,8.82
2022-12-22T07:18:40.834Z,8.88
2022-12-22T07:21:09.879Z,8.79
2022-12-22T07:23:40.248Z,8.79
2022-12-22T07:26:08.243Z,8.86
2022-12-22T07:28:39.705Z,8.88
2022-12-22T07:31:07.072Z,8.89
2022-12-22T07:33:33.833Z,8.82
2022-12-22T07:36:04.193Z,8.87
2022-12-22T07:38:39.909Z,8.83
2022-12-22T07:41:26.304Z,8.93
2022-12-22T07:43:57.549Z,8.88
2022-12-22T07:46:25.603Z,9.02
2022-12-22T07:49:10.752Z,8.98
2022-12-22T07:51:39.145Z,8.99
2022-12-22T07:54:06.548Z,9.03
2022-12-22T07:56:33.190Z,8.98
2022-12-22T07:58:59.865Z,9.06
2022-12-22T08:01:26.666Z,9.02
2022-12-22T08:03:53.372Z,8.94
2022-12-22T08:06:20.709Z,9.05
2022-12-22T08:08:47.397Z,9.04
2022-12-22T08:11:14.165Z,9.04
2022-12-22T08:13:42.062Z,9.17
2022-12-22T08:16:10.739Z,9.14
2022-12-22T08:18:38.099Z,9.14
2022-12-22T08:21:06.314Z,9.12
2022-12-22T08:23:33.166Z,9.14
2022-12-22T08:26:05.351Z,9.23
2022-12-22T08:28:34.662Z,9.23
2022-12-22T08:31:02.203Z,9.02
2022-12-22T08:33:28.828Z,9.12
2022-12-22T08:35:57.943Z,9.16
2022-12-22T08:38:27.874Z,9.09
2022-12-22T08:40:54.560Z,9.17
2022-12-22T08:43:21.921Z,9.22
2022-12-22T08:45:48.544Z,9.22
2022-12-22T08:48:15.450Z,9.12
2022-12-22T08:50:42.207Z,9.26
2022-12-22T08:53:29.725Z,9.32
2022-12-22T08:55:56.464Z,9.16
2022-12-22T08:58:23.097Z,9.25
2022-12-22T09:00:49.732Z,9.18
2022-12-22T09:03:16.502Z,9.18
2022-12-22T09:05:43.245Z,9.29
2022-12-22T09:08:09.869Z,9.32
2022-12-22T09:10:36.557Z,9.29
2022-12-22T09:13:03.328Z,9.09
2022-12-22T09:15:29.978Z,9.21
2022-12-22T09:17:56.628Z,9.21
2022-12-22T09:20:23.271Z,9.27
2022-12-22T09:22:49.864Z,9.20
2022-12-22T09:25:18.336Z,9.11
2022-12-22T09:27:44.997Z,9.19
2022-12-22T09:30:11.898Z,9.18
2022-12-22T09:32:38.694Z,9.33
2022-12-22T09:35:05.530Z,9.42
2022-12-22T09:37:32.196Z,9.30
2022-12-22T09:39:59.008Z,9.28
2022-12-22T09:42:25.665Z,9.42
2022-12-22T09:44:52.475Z,9.48
2022-12-22T09:47:39.616Z,9.36
2022-12-22T09:50:08.993Z,9.33
2022-12-22T09:52:35.556Z,9.23
2022-12-22T09:55:03.057Z,9.35
2022-12-22T09:57:31.840Z,9.30
2022-12-22T10:00:02.745Z,9.39
2022-12-22T10:02:58.511Z,9.54
2022-12-22T10:05:38.635Z,9.48
2022-12-22T10:08:14.727Z,9.56
2022-12-22T10:10:41.563Z,9.48
2022-12-22T10:13:16.956Z,9.42
2022-12-22T10:15:44.041Z,9.40
2022-12-22T10:18:15.938Z,9.36
2022-12-22T10:20:46.937Z,9.46
2022-12-22T10:23:28.352Z,9.48
2022-12-22T10:28:47.724Z,9.54
2022-12-22T10:31:23.799Z,9.66
2022-12-22T10:33:52.896Z,9.58
2022-12-22T10:36:25.719Z,9.64
2022-12-22T10:39:01.087Z,9.64
2022-12-22T10:41:35.053Z,9.63
2022-12-22T10:44:05.395Z,9.71
2022-12-22T10:46:35.819Z,9.72
2022-12-22T10:49:22.041Z,9.51
2022-12-22T10:51:54.995Z,9.55
2022-12-22T10:54:33.587Z,9.60
2022-12-22T10:57:04.240Z,9.56
2022-12-22T10:59:31.869Z,9.61
2022-12-22T11:02:21.870Z,9.68
2022-12-22T11:04:49.666Z,9.68
2022-12-22T11:07:16.394Z,9.78
2022-12-22T11:09:43.259Z,9.80
2022-12-22T11:12:30.295Z,9.94
2022-12-22T11:15:04.970Z,9.87
2022-12-22T11:17:48.781Z,9.86
2022-12-22T11:20:27.833Z,9.99
2022-12-22T11:23:02.143Z,9.84
2022-12-22T11:25:49.756Z,9.98
2022-12-22T11:28:31.416Z,9.92
2022-12-22T11:31:17.791Z,9.96
2022-12-22T11:34:05.102Z,10.00
2022-12-22T11:36:43.209Z,9.93
2022-12-22T11:39:18.609Z,10.04
2022-12-22T11:41:59.404Z,10.08
2022-12-22T11:44:41.301Z,10.01
2022-12-22T11:47:25.604Z,10.04
2022-12-22T11:51:01.104Z,9.96
2022-12-22T11:53:48.444Z,10.15
2022-12-22T11:56:38.983Z,10.01
2022-12-22T11:59:34.866Z,9.95
2022-12-22T12:02:30.170Z,10.11
2022-12-22T12:05:34.497Z,10.18
2022-12-22T12:08:10.318Z,10.11
2022-12-22T12:10:49.990Z,10.14
2022-12-22T12:13:27.454Z,10.19
2022-12-22T12:16:10.174Z,10.13
2022-12-22T12:18:54.045Z,10.12
2022-12-22T12:21:36.814Z,10.18
2022-12-22T12:24:42.865Z,10.18
2022-12-22T12:27:47.871Z,10.21
2022-12-22T12:33:24.344Z,10.25
2022-12-22T12:36:03.004Z,10.30
2022-12-22T12:41:40.107Z,10.37
2022-12-22T12:44:16.044Z,10.24
2022-12-22T12:46:51.833Z,10.13
2022-12-22T12:49:52.008Z,10.18
2022-12-22T12:52:18.612Z,10.15
2022-12-22T12:54:47.425Z,10.14
2022-12-22T12:57:28.479Z,10.19
2022-12-22T12:59:59.748Z,10.23
2022-12-22T13:02:37.161Z,10.24
2022-12-22T13:05:29.923Z,10.25
2022-12-22T13:08:14.637Z,10.21
2022-12-22T13:11:10.174Z,10.21
2022-12-22T13:13:36.853Z,10.13
2022-12-22T13:16:03.491Z,10.14
2022-12-22T13:18:33.198Z,10.21
2022-12-22T13:24:25.174Z,10.15
2022-12-22T13:26:55.316Z,10.04
2022-12-22T13:29:21.979Z,10.05
2022-12-22T13:31:52.228Z,10.11
2022-12-22T13:34:57.336Z,10.14
2022-12-22T13:37:27.856Z,10.11
2022-12-22T13:40:07.202Z,10.06
2022-12-22T13:42:46.364Z,10.07
2022-12-22T13:45:17.907Z,10.14
2022-12-22T13:47:46.275Z,10.06
2022-12-22T13:50:23.425Z,10.09
2022-12-22T13:52:51.241Z,10.06
2022-12-22T13:55:21.175Z,10.10
2022-12-22T13:57:50.940Z,10.10
2022-12-22T14:00:23.472Z,10.05
2022-12-22T14:02:50.488Z,10.04
2022-12-22T14:05:18.052Z,10.15
2022-12-22T14:08:05.103Z,10.11
2022-12-22T14:10:43.560Z,10.10
2022-12-22T14:13:18.868Z,10.10
2022-12-22T14:15:59.606Z,10.04
2022-12-22T14:18:27.147Z,9.95
2022-12-22T14:20:54.340Z,9.97
2022-12-22T14:23:27.403Z,10.00
2022-12-22T14:25:55.766Z,9.97
2022-12-22T14:28:28.128Z,10.07
2022-12-22T14:30:58.846Z,10.10
2022-12-22T14:33:28.439Z,10.10
2022-12-22T14:36:15.555Z,10.17
2022-12-22T14:38:50.072Z,10.22
2022-12-22T14:41:42.131Z,10.15
2022-12-22T14:44:16.452Z,10.02
2022-12-22T14:46:44.651Z,10.11
2022-12-22T14:49:19.272Z,10.20
2022-12-22T14:52:00.947Z,10.18
2022-12-22T14:54:28.687Z,10.22
2022-12-22T14:57:08.460Z,9.93
2022-12-22T14:59:39.913Z,10.00
2022-12-22T15:02:22.667Z,10.00
2022-12-22T15:04:49.331Z,10.00
2022-12-22T15:07:54.279Z,10.09
2022-12-22T15:10:15.980Z,10.12
2022-12-22T15:12:44.063Z,9.98
2022-12-22T15:15:19.484Z,10.07
2022-12-22T15:17:51.335Z,10.12
2022-12-22T15:20:21.131Z,10.10
2022-12-22T15:22:48.115Z,10.10
2022-12-22T15:25:20.011Z,10.12
2022-12-22T15:27:46.958Z,10.10
2022-12-22T15:30:16.876Z,10.08
2022-12-22T15:32:44.125Z,10.04
2022-12-22T15:35:20.031Z,9.99
2022-12-22T15:37:46.895Z,10.14
2022-12-22T15:40:16.345Z,10.18
2022-12-22T15:42:43.121Z,10.20
2022-12-22T15:45:10.227Z,10.27
2022-12-22T15:47:37.157Z,10.25
2022-12-22T15:50:04.082Z,10.20
2022-12-22T15:52:31.837Z,9.81
2022-12-22T15:54:58.559Z,9.76
2022-12-22T15:57:25.231Z,9.82
2022-12-22T15:59:51.858Z,9.95
2022-12-22T16:02:19.370Z,9.71
2022-12-22T16:04:46.196Z,9.87
2022-12-22T16:07:12.886Z,9.98
2022-12-22T16:09:44.567Z,9.76
2022-12-22T16:12:17.321Z,9.87
2022-12-22T16:14:50.170Z,9.88
2022-12-22T16:17:23.130Z,9.80
2022-12-22T16:19:49.752Z,9.88
2022-12-22T16:22:19.697Z,9.59
2022-12-22T16:24:47.905Z,9.65
2022-12-22T16:27:14.984Z,9.79
2022-12-22T16:29:44.563Z,9.61
2022-12-22T16:32:17.910Z,9.68
2022-12-22T16:34:45.043Z,9.78
2022-12-22T16:37:11.680Z,9.86
2022-12-22T16:39:38.374Z,9.96
2022-12-22T16:42:05.746Z,9.95
2022-12-22T16:47:18.050Z,9.87
2022-12-22T16:49:46.601Z,9.85
2022-12-22T16:52:21.655Z,9.89
2022-12-22T16:54:52.572Z,9.92
2022-12-22T16:57:19.576Z,9.91
2022-12-22T16:59:46.221Z,9.77
2022-12-22T17:02:29.214Z,9.61
2022-12-22T17:04:58.251Z,9.62
2022-12-22T17:07:24.920Z,9.61
2022-12-22T17:09:54.406Z,9.52
2022-12-22T17:12:33.134Z,9.53
2022-12-22T17:15:00.477Z,9.44
2022-12-22T17:17:34.045Z,9.32
2022-12-22T17:20:02.238Z,9.34
2022-12-22T17:22:31.102Z,9.27
2022-12-22T17:25:02.570Z,9.24
2022-12-22T17:27:31.383Z,9.21
2022-12-22T17:30:00.459Z,9.12
2022-12-22T17:32:27.110Z,9.08
2022-12-22T17:34:53.717Z,9.09
2022-12-22T17:37:22.699Z,9.01
2022-12-22T17:40:01.104Z,8.88
2022-12-22T17:42:27.974Z,8.90
2022-12-22T17:44:54.747Z,8.73
2022-12-22T17:47:29.059Z,8.68
2022-12-22T17:50:06.030Z,8.67
2022-12-22T17:52:32.731Z,8.79
2022-12-22T17:54:59.465Z,8.72
2022-12-22T17:57:31.123Z,8.78
2022-12-22T18:00:00.945Z,8.73
2022-12-22T18:02:27.900Z,8.40
2022-12-22T18:04:54.807Z,8.72
2022-12-22T18:07:23.420Z,8.72
2022-12-22T18:09:57.901Z,8.71
2022-12-22T18:12:24.895Z,8.58
2022-12-22T18:14:52.225Z,8.39
2022-12-22T18:17:35.420Z,8.46
2022-12-22T18:20:06.308Z,8.52
2022-12-22T18:22:33.019Z,8.63
2022-12-22T18:25:00.482Z,8.56
2022-12-22T18:27:27.129Z,8.60
2022-12-22T18:29:53.785Z,8.65
2022-12-22T18:32:27.038Z,8.77
2022-12-22T18:34:54.331Z,8.73
2022-12-22T18:37:21.054Z,8.76
2022-12-22T18:39:47.755Z,8.79
2022-12-22T18:42:23.272Z,8.80
2022-12-22T18:44:53.457Z,8.73
2022-12-22T18:47:20.259Z,8.84
2022-12-22T18:49:47.059Z,8.94
2022-12-22T18:52:23.334Z,8.91
2022-12-22T18:54:50.012Z,8.91
2022-12-22T18:57:19.614Z,8.89
2022-12-22T18:59:49.358Z,8.78
2022-12-22T19:02:23.568Z,8.74
2022-12-22T19:04:50.869Z,8.88
2022-12-22T19:07:20.234Z,8.84
2022-12-22T19:09:47.642Z,8.87
2022-12-22T19:12:16.750Z,8.87
2022-12-22T19:14:45.420Z,8.69
2022-12-22T19:17:14.593Z,8.72
2022-12-22T19:19:41.310Z,8.86
2022-12-22T19:22:12.672Z,8.71
2022-12-22T19:24:40.266Z,8.65
2022-12-22T19:27:17.106Z,8.56
2022-12-22T19:29:44.154Z,8.56
2022-12-22T19:32:23.557Z,8.68
2022-12-22T19:34:50.637Z,8.62
2022-12-22T19:37:17.338Z,8.59
2022-12-22T19:39:44.416Z,8.51
2022-12-22T19:42:16.335Z,8.50
2022-12-22T19:44:46.362Z,8.42
2022-12-22T19:47:29.587Z,8.49
2022-12-22T19:49:56.644Z,8.44
2022-12-22T19:52:23.321Z,8.37
2022-12-22T19:54:49.942Z,8.37
2022-12-22T19:57:20.823Z,8.25
2022-12-22T19:59:49.343Z,8.27
2022-12-22T20:02:22.360Z,8.23
2022-12-22T20:04:49.777Z,8.14
2022-12-22T20:07:17.395Z,8.11
2022-12-22T20:09:44.070Z,8.07
2022-12-22T20:12:36.035Z,7.89
2022-12-22T20:15:13.537Z,7.97
2022-12-22T20:17:40.197Z,7.92
2022-12-22T20:20:07.687Z,7.81
2022-12-22T20:22:34.452Z,7.72
2022-12-22T20:25:01.187Z,7.79
2022-12-22T20:27:32.414Z,7.69
2022-12-22T20:30:02.043Z,7.68
2022-12-22T20:32:29.009Z,7.71
2022-12-22T20:34:56.301Z,7.66
2022-12-22T20:37:23.005Z,7.63
2022-12-22T20:39:49.947Z,7.67
2022-12-22T20:42:21.377Z,7.63
2022-12-22T20:45:01.633Z,7.55
2022-12-22T20:47:32.242Z,7.54
2022-12-22T20:49:59.407Z,7.47
2022-12-22T20:52:26.517Z,7.57
2022-12-22T20:54:53.321Z,7.52
2022-12-22T20:57:21.729Z,7.51
2022-12-22T20:59:55.681Z,7.52
2022-12-22T21:02:29.876Z,7.53
2022-12-22T21:04:57.081Z,7.50
2022-12-22T21:07:23.698Z,7.54
2022-12-22T21:09:50.403Z,7.50
2022-12-22T21:12:17.348Z,7.41
2022-12-22T21:14:44.914Z,7.51
2022-12-22T21:17:16.884Z,7.46
2022-12-22T21:19:43.692Z,7.36
2022-12-22T21:22:10.500Z,7.44
2022-12-22T21:24:37.331Z,7.31
2022-12-22T21:27:05.242Z,7.45
2022-12-22T21:29:32.267Z,7.43
2022-12-22T21:31:59.012Z,7.42
2022-12-22T21:34:25.608Z,7.37
2022-12-22T21:36:57.765Z,7.41
2022-12-22T21:39:39.485Z,7.48
2022-12-22T21:42:06.631Z,7.33
2022-12-22T21:44:34.791Z,7.34
2022-12-22T21:47:02.158Z,7.25
2022-12-22T21:49:31.027Z,7.41
2022-12-22T21:51:57.825Z,7.26
2022-12-22T21:54:25.810Z,7.35
2022-12-22T21:56:54.087Z,7.27
2022-12-22T21:59:23.878Z,7.37
2022-12-22T22:01:53.088Z,7.28
2022-12-22T22:04:20.308Z,7.28
2022-12-22T22:06:46.927Z,7.32
2022-12-22T22:09:13.679Z,7.19
2022-12-22T22:11:59.495Z,7.32
2022-12-22T22:14:26.902Z,7.27
2022-12-22T22:16:53.739Z,7.42
2022-12-22T22:19:20.329Z,7.36
2022-12-22T22:21:47.582Z,7.41
2022-12-22T22:24:14.374Z,7.34
2022-12-22T22:26:41.039Z,7.43
2022-12-22T22:29:07.706Z,7.35
2022-12-22T22:31:34.424Z,7.34
2022-12-22T22:34:01.091Z,7.36
2022-12-22T22:36:27.868Z,7.45
2022-12-22T22:38:54.683Z,7.47
2022-12-22T22:41:21.365Z,7.33
2022-12-22T22:43:48.164Z,7.44
2022-12-22T22:46:14.839Z,7.44
2022-12-22T22:48:41.527Z,7.44
2022-12-22T22:51:10.277Z,7.43
2022-12-22T22:53:36.926Z,7.46
2022-12-22T22:56:03.711Z,7.46
2022-12-22T22:58:30.416Z,7.42
2022-12-22T23:01:04.390Z,7.58
2022-12-22T23:03:31.208Z,7.50
2022-12-22T23:06:04.943Z,7.60
2022-12-22T23:08:33.461Z,7.22
2022-12-22T23:11:01.357Z,7.40
2022-12-22T23:13:28.472Z,7.38
2022-12-22T23:16:00.458Z,7.41
2022-12-22T23:18:28.156Z,7.43
2022-12-22T23:20:57.511Z,7.33
2022-12-22T23:23:24.260Z,7.39
2022-12-22T23:25:51.357Z,7.47
2022-12-22T23:28:18.663Z,7.61
2022-12-22T23:30:48.473Z,7.63
2022-12-22T23:33:15.305Z,7.63
2022-12-22T23:35:42.799Z,7.57
2022-12-22T23:38:09.897Z,7.72
2022-12-22T23:40:55.739Z,7.63
2022-12-22T23:43:22.518Z,7.68
2022-12-22T23:45:49.440Z,7.68
2022-12-22T23:48:16.208Z,7.73
2022-12-22T23:50:45.947Z,7.84
2022-12-22T23:53:16.167Z,7.89
2022-12-22T23:55:44.729Z,7.80
2022-12-22T23:58:15.032Z,7.61
